createdAt,value
2019-01-08T00:00:42.323Z,7.42
2019-01-08T00:03:11.091Z,7.40
2019-01-08T00:05:40.230Z,7.41
2019-01-08T00:08:09.024Z,7.40
2019-01-08T00:10:38.043Z,7.36
2019-01-08T00:13:06.876Z,7.33
2019-01-08T00:15:35.697Z,7.30
2019-01-08T00:18:04.511Z,7.35
2019-01-08T00:20:33.585Z,7.28
2019-01-08T00:23:02.365Z,7.25
2019-01-08T00:25:31.153Z,7.26
2019-01-08T00:27:59.935Z,7.16
2019-01-08T00:30:29.067Z,7.18
2019-01-08T00:32:58.122Z,7.19
2019-01-08T00:35:27.180Z,7.14
2019-01-08T00:37:56.313Z,7.14
2019-01-08T00:40:25.128Z,7.16
2019-01-08T00:42:53.917Z,7.11
2019-01-08T00:45:22.954Z,7.13
2019-01-08T00:47:51.743Z,7.09
2019-01-08T00:50:20.590Z,7.10
2019-01-08T00:52:49.794Z,7.06
2019-01-08T00:55:18.560Z,7.08
2019-01-08T00:57:47.349Z,7.10
2019-01-08T01:00:17.092Z,7.12
2019-01-08T01:02:45.898Z,7.07
2019-01-08T01:05:14.714Z,7.07
2019-01-08T01:07:43.506Z,7.08
2019-01-08T01:10:12.396Z,7.08
2019-01-08T01:12:43.410Z,7.08
2019-01-08T01:15:12.379Z,7.08
2019-01-08T01:17:41.505Z,7.08
2019-01-08T01:20:10.331Z,7.07
2019-01-08T01:22:39.111Z,7.06
2019-01-08T01:25:08.065Z,7.10
2019-01-08T01:27:36.857Z,7.08
2019-01-08T01:30:06.080Z,7.10
2019-01-08T01:32:34.945Z,7.05
2019-01-08T01:35:03.811Z,7.05
2019-01-08T01:37:32.850Z,7.01
2019-01-08T01:40:01.990Z,7.02
2019-01-08T01:42:30.833Z,7.05
2019-01-08T01:44:59.779Z,7.03
2019-01-08T01:47:28.683Z,7.00
2019-01-08T01:49:57.534Z,6.98
2019-01-08T01:52:26.454Z,7.00
2019-01-08T01:54:55.824Z,6.99
2019-01-08T01:57:24.649Z,6.96
2019-01-08T01:59:53.732Z,6.97
2019-01-08T02:02:22.656Z,6.96
2019-01-08T02:04:51.520Z,6.93
2019-01-08T02:07:20.315Z,6.93
2019-01-08T02:09:49.367Z,6.89
2019-01-08T02:12:18.240Z,6.85
2019-01-08T02:14:47.384Z,6.86
2019-01-08T02:17:16.184Z,6.89
2019-01-08T02:19:45.578Z,6.93
2019-01-08T02:22:14.637Z,6.93
2019-01-08T02:24:43.775Z,6.93
2019-01-08T02:27:12.605Z,6.92
2019-01-08T02:29:41.536Z,6.89
2019-01-08T02:32:10.361Z,6.88
2019-01-08T02:34:39.150Z,6.90
2019-01-08T02:37:08.227Z,6.88
2019-01-08T02:39:37.304Z,6.85
2019-01-08T02:42:06.087Z,6.79
2019-01-08T02:44:34.970Z,6.74
2019-01-08T02:47:04.150Z,6.72
2019-01-08T02:49:35.029Z,6.65
2019-01-08T02:52:04.083Z,6.61
2019-01-08T02:54:33.186Z,6.52
2019-01-08T02:57:02.247Z,6.45
2019-01-08T02:59:31.565Z,6.37
2019-01-08T03:02:00.620Z,6.22
2019-01-08T03:04:29.443Z,6.30
2019-01-08T03:06:58.497Z,6.14
2019-01-08T03:09:28.803Z,6.25
2019-01-08T03:11:57.902Z,6.15
2019-01-08T03:14:27.008Z,6.21
2019-01-08T03:16:55.887Z,6.13
2019-01-08T03:19:24.939Z,6.08
2019-01-08T03:21:53.994Z,6.17
2019-01-08T03:24:22.817Z,6.06
2019-01-08T03:26:51.612Z,6.07
2019-01-08T03:29:22.680Z,6.18
2019-01-08T03:31:52.074Z,6.12
2019-01-08T03:34:20.847Z,6.17
2019-01-08T03:36:49.643Z,6.15
2019-01-08T03:39:18.470Z,6.11
2019-01-08T03:41:47.580Z,6.13
2019-01-08T03:44:16.411Z,6.16
2019-01-08T03:46:45.357Z,6.12
2019-01-08T03:49:14.135Z,6.22
2019-01-08T03:51:42.942Z,6.15
2019-01-08T03:54:12.090Z,6.20
2019-01-08T03:56:40.941Z,6.19
2019-01-08T03:59:10.034Z,6.18
2019-01-08T04:01:39.461Z,6.15
2019-01-08T04:04:08.261Z,6.17
2019-01-08T04:06:37.406Z,6.09
2019-01-08T04:09:07.195Z,6.05
2019-01-08T04:11:36.051Z,6.11
2019-01-08T04:14:05.162Z,6.17
2019-01-08T04:16:33.935Z,6.07
2019-01-08T04:19:02.785Z,6.04
2019-01-08T04:21:31.595Z,6.13
2019-01-08T04:24:00.636Z,6.20
2019-01-08T04:26:30.792Z,6.17
2019-01-08T04:28:59.673Z,6.15
2019-01-08T04:31:28.476Z,6.15
2019-01-08T04:33:57.284Z,6.22
2019-01-08T04:36:26.458Z,6.13
2019-01-08T04:38:55.276Z,6.17
2019-01-08T04:41:24.072Z,6.20
2019-01-08T04:43:53.032Z,6.04
2019-01-08T04:46:21.861Z,6.15
2019-01-08T04:48:50.658Z,6.16
2019-01-08T04:51:19.411Z,6.17
2019-01-08T04:53:48.206Z,6.09
2019-01-08T04:56:17.077Z,6.12
2019-01-08T04:58:45.856Z,6.07
2019-01-08T05:01:15.084Z,6.10
2019-01-08T05:03:44.120Z,6.05
2019-01-08T05:06:13.240Z,6.01
2019-01-08T05:08:42.412Z,6.07
2019-01-08T05:11:11.194Z,5.91
2019-01-08T05:13:40.067Z,5.97
2019-01-08T05:16:08.855Z,5.95
2019-01-08T05:18:37.629Z,5.94
2019-01-08T05:21:06.713Z,5.94
2019-01-08T05:23:36.036Z,5.97
2019-01-08T05:26:04.905Z,5.93
2019-01-08T05:28:33.739Z,5.93
2019-01-08T05:31:03.144Z,5.88
2019-01-08T05:33:31.977Z,5.91
2019-01-08T05:36:00.804Z,5.97
2019-01-08T05:38:34.369Z,5.98
2019-01-08T05:41:03.143Z,5.90
2019-01-08T05:43:32.000Z,5.94
2019-01-08T05:46:00.894Z,5.96
2019-01-08T05:48:29.679Z,5.99
2019-01-08T05:50:58.708Z,5.98
2019-01-08T05:53:27.779Z,5.98
2019-01-08T05:55:56.633Z,5.97
2019-01-08T05:58:25.406Z,5.96
2019-01-08T06:00:54.190Z,5.94
2019-01-08T06:03:23.021Z,5.97
2019-01-08T06:05:51.945Z,6.05
2019-01-08T06:08:20.997Z,6.06
2019-01-08T06:10:50.065Z,6.06
2019-01-08T06:13:19.105Z,6.00
2019-01-08T06:15:47.953Z,6.05
2019-01-08T06:18:16.967Z,6.05
2019-01-08T06:20:45.843Z,6.04
2019-01-08T06:23:14.728Z,6.01
2019-01-08T06:25:43.501Z,6.06
2019-01-08T06:28:12.537Z,6.07
2019-01-08T06:30:41.322Z,6.13
2019-01-08T06:33:10.440Z,6.10
2019-01-08T06:35:39.220Z,6.09
2019-01-08T06:38:08.006Z,6.09
2019-01-08T06:40:37.051Z,6.10
2019-01-08T06:43:05.826Z,6.06
2019-01-08T06:45:38.142Z,6.11
2019-01-08T06:48:06.940Z,6.08
2019-01-08T06:50:35.710Z,6.06
2019-01-08T06:53:04.737Z,6.10
2019-01-08T06:55:36.304Z,6.13
2019-01-08T06:58:05.091Z,6.15
2019-01-08T07:00:33.886Z,6.15
2019-01-08T07:03:02.718Z,6.13
2019-01-08T07:05:31.543Z,6.10
2019-01-08T07:08:00.309Z,6.06
2019-01-08T07:10:29.090Z,6.04
2019-01-08T07:12:58.507Z,6.08
2019-01-08T07:15:38.048Z,6.06
2019-01-08T07:18:06.750Z,6.03
2019-01-08T07:20:36.296Z,5.97
2019-01-08T07:23:05.516Z,6.03
2019-01-08T07:25:41.928Z,6.04
2019-01-08T07:28:04.809Z,6.03
2019-01-08T07:30:41.231Z,6.10
2019-01-08T07:33:04.124Z,6.09
2019-01-08T07:35:33.302Z,6.09
2019-01-08T07:38:02.276Z,6.08
2019-01-08T07:40:31.057Z,6.11
2019-01-08T07:42:59.803Z,6.13
2019-01-08T07:45:28.667Z,6.13
2019-01-08T07:47:57.469Z,6.18
2019-01-08T07:50:26.262Z,6.19
2019-01-08T07:52:55.029Z,6.21
2019-01-08T07:55:23.846Z,6.23
2019-01-08T07:57:52.932Z,6.28
2019-01-08T08:00:21.786Z,6.29
2019-01-08T08:02:50.620Z,6.28
2019-01-08T08:05:19.687Z,6.29
2019-01-08T08:07:48.478Z,6.33
2019-01-08T08:10:17.242Z,6.37
2019-01-08T08:12:46.282Z,6.34
2019-01-08T08:15:15.422Z,6.36
2019-01-08T08:17:44.310Z,6.39
2019-01-08T08:20:13.616Z,6.36
2019-01-08T08:22:42.687Z,6.38
2019-01-08T08:25:11.770Z,6.35
2019-01-08T08:27:40.549Z,6.34
2019-01-08T08:30:09.930Z,6.34
2019-01-08T08:32:38.717Z,6.36
2019-01-08T08:35:08.779Z,6.33
2019-01-08T08:37:37.717Z,6.34
2019-01-08T08:40:07.283Z,6.32
2019-01-08T08:42:36.356Z,6.29
2019-01-08T08:45:05.361Z,6.31
2019-01-08T08:47:35.826Z,6.32
2019-01-08T08:50:05.219Z,6.25
2019-01-08T08:52:33.988Z,6.27
2019-01-08T08:55:03.053Z,6.25
2019-01-08T08:57:32.331Z,6.28
2019-01-08T09:00:01.092Z,6.26
2019-01-08T09:02:29.881Z,6.27
2019-01-08T09:04:58.945Z,6.25
2019-01-08T09:07:27.971Z,6.24
2019-01-08T09:09:56.782Z,6.25
2019-01-08T09:12:25.579Z,6.25
2019-01-08T09:14:54.335Z,6.24
2019-01-08T09:17:23.141Z,6.26
2019-01-08T09:19:51.897Z,6.21
2019-01-08T09:22:20.733Z,6.20
2019-01-08T09:24:49.888Z,6.21
2019-01-08T09:27:18.648Z,6.22
2019-01-08T09:29:47.417Z,6.25
2019-01-08T09:32:16.614Z,6.28
2019-01-08T09:34:45.377Z,6.31
2019-01-08T09:37:14.186Z,6.31
2019-01-08T09:39:43.425Z,6.34
2019-01-08T09:42:12.273Z,6.36
2019-01-08T09:44:41.042Z,6.37
2019-01-08T09:47:09.800Z,6.39
2019-01-08T09:49:38.625Z,6.36
2019-01-08T09:52:07.396Z,6.39
2019-01-08T09:54:36.299Z,6.38
2019-01-08T09:57:05.424Z,6.38
2019-01-08T09:59:35.582Z,6.39
2019-01-08T10:02:05.075Z,6.42
2019-01-08T10:04:33.875Z,6.44
2019-01-08T10:07:02.693Z,6.47
2019-01-08T10:09:31.473Z,6.47
2019-01-08T10:12:00.254Z,6.50
2019-01-08T10:14:29.021Z,6.48
2019-01-08T10:16:57.928Z,6.48
2019-01-08T10:19:26.911Z,6.48
2019-01-08T10:21:55.729Z,6.45
2019-01-08T10:24:24.528Z,6.45
2019-01-08T10:26:53.327Z,6.38
2019-01-08T10:29:22.375Z,6.41
2019-01-08T10:31:51.851Z,6.36
2019-01-08T10:34:20.704Z,6.37
2019-01-08T10:36:49.461Z,6.30
2019-01-08T10:39:18.253Z,6.31
2019-01-08T10:41:47.180Z,6.28
2019-01-08T10:44:16.060Z,6.28
2019-01-08T10:46:45.098Z,6.28
2019-01-08T10:49:13.998Z,6.28
2019-01-08T10:51:42.795Z,6.25
2019-01-08T10:54:11.614Z,6.32
2019-01-08T10:56:40.437Z,6.30
2019-01-08T10:59:09.208Z,6.34
2019-01-08T11:01:40.748Z,6.34
2019-01-08T11:04:09.855Z,6.37
2019-01-08T11:06:38.709Z,6.36
2019-01-08T11:09:08.064Z,6.37
2019-01-08T11:11:37.250Z,6.35
2019-01-08T11:14:06.554Z,6.34
2019-01-08T11:16:35.400Z,6.31
2019-01-08T11:19:06.845Z,6.32
2019-01-08T11:21:35.929Z,6.31
2019-01-08T11:24:05.402Z,6.32
2019-01-08T11:26:34.434Z,6.32
2019-01-08T11:29:03.547Z,6.30
2019-01-08T11:31:32.473Z,6.33
2019-01-08T11:34:01.236Z,6.37
2019-01-08T11:36:30.297Z,6.39
2019-01-08T11:38:59.114Z,6.42
2019-01-08T11:41:27.948Z,6.40
2019-01-08T11:43:56.999Z,6.39
2019-01-08T11:46:26.099Z,6.40
2019-01-08T11:48:54.908Z,6.40
2019-01-08T11:51:23.709Z,6.39
2019-01-08T11:53:52.737Z,6.39
2019-01-08T11:56:21.793Z,6.42
2019-01-08T11:58:50.593Z,6.40
2019-01-08T12:01:19.919Z,6.42
2019-01-08T12:03:49.253Z,6.46
2019-01-08T12:06:18.103Z,6.53
2019-01-08T12:08:47.173Z,6.54
2019-01-08T12:11:15.969Z,6.54
2019-01-08T12:13:44.761Z,6.51
2019-01-08T12:16:13.556Z,6.51
2019-01-08T12:18:42.355Z,6.48
2019-01-08T12:21:11.767Z,6.46
2019-01-08T12:23:40.783Z,6.46
2019-01-08T12:26:09.961Z,6.47
2019-01-08T12:28:38.728Z,6.41
2019-01-08T12:31:07.479Z,6.41
2019-01-08T12:33:36.271Z,6.43
2019-01-08T12:36:05.074Z,6.45
2019-01-08T12:38:34.378Z,6.44
2019-01-08T12:41:03.659Z,6.42
2019-01-08T12:43:32.551Z,6.44
2019-01-08T12:46:01.644Z,6.47
2019-01-08T12:48:30.474Z,6.43
2019-01-08T12:50:59.313Z,6.41
2019-01-08T12:53:28.431Z,6.42
2019-01-08T12:55:57.826Z,6.39
2019-01-08T12:58:26.923Z,6.38
2019-01-08T13:00:55.700Z,6.38
2019-01-08T13:03:24.505Z,6.36
2019-01-08T13:05:53.330Z,6.36
2019-01-08T13:08:22.194Z,6.36
2019-01-08T13:10:50.950Z,6.34
2019-01-08T13:13:19.919Z,6.38
2019-01-08T13:15:48.690Z,6.36
2019-01-08T13:18:17.703Z,6.39
2019-01-08T13:20:46.506Z,6.37
2019-01-08T13:23:15.271Z,6.39
2019-01-08T13:25:44.099Z,6.36
2019-01-08T13:28:12.900Z,6.34
2019-01-08T13:30:41.683Z,6.26
2019-01-08T13:33:10.483Z,6.24
2019-01-08T13:35:39.451Z,6.16
2019-01-08T13:38:08.286Z,6.09
2019-01-08T13:40:37.120Z,6.05
2019-01-08T13:43:06.184Z,6.02
2019-01-08T13:45:35.239Z,5.97
2019-01-08T13:48:04.206Z,5.92
2019-01-08T13:50:34.342Z,5.90
2019-01-08T13:53:03.213Z,5.92
2019-01-08T13:55:31.985Z,5.80
2019-01-08T13:58:00.748Z,5.88
2019-01-08T14:00:31.692Z,5.84
2019-01-08T14:03:00.774Z,5.69
2019-01-08T14:05:29.596Z,5.71
2019-01-08T14:07:58.683Z,5.73
2019-01-08T14:10:34.361Z,5.60
2019-01-08T14:13:04.172Z,5.64
2019-01-08T14:15:32.931Z,5.65
2019-01-08T14:18:02.058Z,5.61
2019-01-08T14:20:31.388Z,5.57
2019-01-08T14:23:00.280Z,5.55
2019-01-08T14:25:29.061Z,5.55
2019-01-08T14:27:58.116Z,5.50
2019-01-08T14:30:27.162Z,5.48
2019-01-08T14:32:56.120Z,5.52
2019-01-08T14:35:26.355Z,5.51
2019-01-08T14:37:55.239Z,5.46
2019-01-08T14:40:24.219Z,5.46
2019-01-08T14:42:53.053Z,5.46
2019-01-08T14:45:22.021Z,5.45
2019-01-08T14:47:50.808Z,5.47
2019-01-08T14:50:19.871Z,5.43
2019-01-08T14:52:48.674Z,5.48
2019-01-08T14:55:20.669Z,5.41
2019-01-08T14:57:52.565Z,5.39
2019-01-08T15:00:21.516Z,5.31
2019-01-08T15:02:52.881Z,5.30
2019-01-08T15:05:21.859Z,5.27
2019-01-08T15:07:51.143Z,5.27
2019-01-08T15:10:20.185Z,5.32
2019-01-08T15:12:49.034Z,5.26
2019-01-08T15:15:18.581Z,5.17
2019-01-08T15:17:47.747Z,5.21
2019-01-08T15:20:16.548Z,5.25
2019-01-08T15:22:46.568Z,5.23
2019-01-08T15:25:15.438Z,5.19
2019-01-08T15:27:52.468Z,5.18
2019-01-08T15:30:21.321Z,5.24
2019-01-08T15:32:58.244Z,5.16
2019-01-08T15:35:23.179Z,5.24
2019-01-08T15:37:52.275Z,5.17
2019-01-08T15:40:21.175Z,5.19
2019-01-08T15:42:49.981Z,5.17
2019-01-08T15:45:19.111Z,5.11
2019-01-08T15:47:51.283Z,5.12
2019-01-08T15:50:20.314Z,5.19
2019-01-08T15:52:49.397Z,5.10
2019-01-08T15:55:18.430Z,5.09
2019-01-08T15:57:47.232Z,5.08
2019-01-08T16:00:16.237Z,5.05
2019-01-08T16:02:45.042Z,5.03
2019-01-08T16:05:13.890Z,4.99
2019-01-08T16:07:42.643Z,5.02
2019-01-08T16:10:11.438Z,4.98
2019-01-08T16:12:40.212Z,5.01
2019-01-08T16:15:09.225Z,5.00
2019-01-08T16:17:38.280Z,4.94
2019-01-08T16:20:07.795Z,4.94
2019-01-08T16:22:36.644Z,4.96
2019-01-08T16:25:05.888Z,5.01
2019-01-08T16:27:35.114Z,4.95
2019-01-08T16:30:05.658Z,4.90
2019-01-08T16:32:34.717Z,4.90
2019-01-08T16:35:03.838Z,4.93
2019-01-08T16:37:32.629Z,4.80
2019-01-08T16:40:01.496Z,4.90
2019-01-08T16:42:30.535Z,4.95
2019-01-08T16:44:59.663Z,4.92
2019-01-08T16:47:28.745Z,4.82
2019-01-08T16:49:57.555Z,4.84
2019-01-08T16:52:26.380Z,4.82
2019-01-08T16:54:55.421Z,4.78
2019-01-08T16:57:24.712Z,4.75
2019-01-08T16:59:57.134Z,4.78
2019-01-08T17:02:28.992Z,4.84
2019-01-08T17:05:24.282Z,4.79
2019-01-08T17:07:48.835Z,4.84
2019-01-08T17:10:18.250Z,4.80
2019-01-08T17:13:02.122Z,4.77
2019-01-08T17:15:30.869Z,4.74
2019-01-08T17:17:59.912Z,4.73
2019-01-08T17:20:28.752Z,4.65
2019-01-08T17:22:57.986Z,4.57
2019-01-08T17:25:26.794Z,4.64
2019-01-08T17:27:55.889Z,4.70
2019-01-08T17:30:25.053Z,4.77
2019-01-08T17:32:54.229Z,4.68
2019-01-08T17:35:25.888Z,4.68
2019-01-08T17:37:54.644Z,4.67
2019-01-08T17:40:23.483Z,4.65
2019-01-08T17:42:52.848Z,4.64
2019-01-08T17:45:21.619Z,4.68
2019-01-08T17:47:50.385Z,4.67
2019-01-08T17:50:19.560Z,4.61
2019-01-08T17:52:48.758Z,4.57
2019-01-08T17:55:17.793Z,4.62
2019-01-08T17:57:46.625Z,4.57
2019-01-08T18:00:15.591Z,4.56
2019-01-08T18:02:49.401Z,4.56
2019-01-08T18:05:18.486Z,4.57
2019-01-08T18:07:47.283Z,4.58
2019-01-08T18:10:18.689Z,4.48
2019-01-08T18:12:47.486Z,4.44
2019-01-08T18:15:16.363Z,4.44
2019-01-08T18:17:45.132Z,4.46
2019-01-08T18:20:14.184Z,4.46
2019-01-08T18:22:42.982Z,4.44
2019-01-08T18:25:11.941Z,4.42
2019-01-08T18:27:40.827Z,4.44
2019-01-08T18:30:09.683Z,4.46
2019-01-08T18:32:38.597Z,4.37
2019-01-08T18:35:07.580Z,4.37
2019-01-08T18:37:36.402Z,4.35
2019-01-08T18:40:05.844Z,4.31
2019-01-08T18:42:36.214Z,4.34
2019-01-08T18:45:05.273Z,4.32
2019-01-08T18:47:34.040Z,4.32
2019-01-08T18:50:03.202Z,4.34
2019-01-08T18:52:32.218Z,4.32
2019-01-08T18:55:01.393Z,4.30
2019-01-08T18:57:30.619Z,4.30
2019-01-08T18:59:59.949Z,4.25
2019-01-08T19:02:28.868Z,4.29
2019-01-08T19:04:57.751Z,4.19
2019-01-08T19:07:26.658Z,4.24
2019-01-08T19:10:07.247Z,4.27
2019-01-08T19:12:36.102Z,4.28
2019-01-08T19:15:05.493Z,4.23
2019-01-08T19:17:34.596Z,4.28
2019-01-08T19:20:03.496Z,4.28
2019-01-08T19:22:32.318Z,4.28
2019-01-08T19:25:01.173Z,4.31
2019-01-08T19:27:30.268Z,4.26
2019-01-08T19:29:59.333Z,4.28
2019-01-08T19:32:28.127Z,4.24
2019-01-08T19:34:57.406Z,4.20
2019-01-08T19:37:26.740Z,4.18
2019-01-08T19:39:55.504Z,4.18
2019-01-08T19:42:24.287Z,4.18
2019-01-08T19:44:53.141Z,4.17
2019-01-08T19:47:22.169Z,4.11
2019-01-08T19:49:51.515Z,4.11
2019-01-08T19:52:20.355Z,4.10
2019-01-08T19:54:49.153Z,4.09
2019-01-08T19:57:18.151Z,4.14
2019-01-08T19:59:46.945Z,4.14
2019-01-08T20:02:15.806Z,4.01
2019-01-08T20:04:44.600Z,4.07
2019-01-08T20:07:13.648Z,4.01
2019-01-08T20:09:42.839Z,4.01
2019-01-08T20:12:11.794Z,4.04
2019-01-08T20:14:40.580Z,3.89
2019-01-08T20:17:09.407Z,3.88
2019-01-08T20:19:38.218Z,3.79
2019-01-08T20:22:07.425Z,3.75
2019-01-08T20:24:36.188Z,3.76
2019-01-08T20:27:05.165Z,3.65
2019-01-08T20:29:34.234Z,3.70
2019-01-08T20:32:03.527Z,3.66
2019-01-08T20:34:32.298Z,3.71
2019-01-08T20:37:01.086Z,3.66
2019-01-08T20:39:29.865Z,3.47
2019-01-08T20:41:58.837Z,3.63
2019-01-08T20:44:29.025Z,3.59
2019-01-08T20:47:00.087Z,3.53
2019-01-08T20:49:29.301Z,3.63
2019-01-08T20:51:58.209Z,3.57
2019-01-08T20:54:27.282Z,3.70
2019-01-08T20:56:56.570Z,3.60
2019-01-08T20:59:32.505Z,3.55
2019-01-08T21:02:03.138Z,3.49
2019-01-08T21:04:35.649Z,3.54
2019-01-08T21:07:03.170Z,3.46
2019-01-08T21:09:32.313Z,3.48
2019-01-08T21:12:01.496Z,3.47
2019-01-08T21:14:30.359Z,3.47
2019-01-08T21:16:59.494Z,3.36
2019-01-08T21:19:28.377Z,3.33
2019-01-08T21:21:57.198Z,3.42
2019-01-08T21:24:28.940Z,3.34
2019-01-08T21:26:56.520Z,3.34
2019-01-08T21:29:28.894Z,3.35
2019-01-08T21:31:57.701Z,3.36
2019-01-08T21:34:26.968Z,3.40
2019-01-08T21:36:55.775Z,3.42
2019-01-08T21:39:25.083Z,3.47
2019-01-08T21:41:53.854Z,3.42
2019-01-08T21:44:22.689Z,3.35
2019-01-08T21:47:03.617Z,3.42
2019-01-08T21:49:32.424Z,3.36
2019-01-08T21:52:01.223Z,3.41
2019-01-08T21:54:30.071Z,3.33
2019-01-08T21:56:59.025Z,3.30
2019-01-08T21:59:39.601Z,3.32
2019-01-08T22:02:17.556Z,3.12
2019-01-08T22:04:53.311Z,3.35
2019-01-08T22:07:27.041Z,3.29
2019-01-08T22:10:05.429Z,3.28
2019-01-08T22:12:52.410Z,3.33
2019-01-08T22:15:27.545Z,3.20
2019-01-08T22:17:56.806Z,3.25
2019-01-08T22:20:25.587Z,3.23
2019-01-08T22:22:54.431Z,3.32
2019-01-08T22:25:23.253Z,3.23
2019-01-08T22:27:52.793Z,3.13
2019-01-08T22:30:21.676Z,3.21
2019-01-08T22:32:50.464Z,3.22
2019-01-08T22:35:19.322Z,3.19
2019-01-08T22:37:48.091Z,3.20
2019-01-08T22:40:16.866Z,3.13
2019-01-08T22:42:45.652Z,3.16
2019-01-08T22:45:16.309Z,3.14
2019-01-08T22:47:45.427Z,3.14
2019-01-08T22:50:14.289Z,3.20
2019-01-08T22:52:43.152Z,3.21
2019-01-08T22:55:12.129Z,3.18
2019-01-08T22:57:40.933Z,3.20
2019-01-08T23:00:33.054Z,3.18
2019-01-08T23:03:02.224Z,3.16
2019-01-08T23:05:31.271Z,3.11
2019-01-08T23:08:00.256Z,3.09
2019-01-08T23:10:30.680Z,3.12
2019-01-08T23:12:59.950Z,3.15
2019-01-08T23:15:28.898Z,3.15
2019-01-08T23:17:57.825Z,3.19
2019-01-08T23:20:26.682Z,3.22
2019-01-08T23:22:55.555Z,3.25
2019-01-08T23:25:24.602Z,3.23
2019-01-08T23:27:53.780Z,3.27
2019-01-08T23:30:22.913Z,3.27
2019-01-08T23:32:51.889Z,3.25
2019-01-08T23:35:21.208Z,3.23
2019-01-08T23:37:50.100Z,3.29
2019-01-08T23:40:19.348Z,3.31
2019-01-08T23:42:48.185Z,3.34
2019-01-08T23:45:17.154Z,3.30
2019-01-08T23:47:46.024Z,3.34
2019-01-08T23:50:14.845Z,3.36
2019-01-08T23:52:51.796Z,3.36
2019-01-08T23:55:22.995Z,3.37
2019-01-08T23:57:59.228Z,3.35
